sensor_id;sensor_type;location;lat;lon;timestamp;temperature;humidity
11597;DHT22;5854;48.072;16.286;2022-12-13T00:01:18;-1.60;72.30
11597;DHT22;5854;48.072;16.286;2022-12-13T00:03:46;-1.60;71.60
11597;DHT22;5854;48.072;16.286;2022-12-13T00:06:14;-1.60;72.50
11597;DHT22;5854;48.072;16.286;2022-12-13T00:08:42;-1.70;73.90
11597;DHT22;5854;48.072;16.286;2022-12-13T00:11:11;-1.60;73.30
11597;DHT22;5854;48.072;16.286;2022-12-13T00:13:42;-1.80;70.50
11597;DHT22;5854;48.072;16.286;2022-12-13T00:16:13;-1.80;71.00
11597;DHT22;5854;48.072;16.286;2022-12-13T00:18:41;-1.90;70.30
11597;DHT22;5854;48.072;16.286;2022-12-13T00:21:11;-2.00;73.00
11597;DHT22;5854;48.072;16.286;2022-12-13T00:23:41;-2.00;72.90
11597;DHT22;5854;48.072;16.286;2022-12-13T00:26:10;-2.00;71.40
11597;DHT22;5854;48.072;16.286;2022-12-13T00:28:39;-2.00;71.80
11597;DHT22;5854;48.072;16.286;2022-12-13T00:31:08;-1.90;71.00
11597;DHT22;5854;48.072;16.286;2022-12-13T00:33:37;-1.80;72.90
11597;DHT22;5854;48.072;16.286;2022-12-13T00:36:05;-2.00;71.70
11597;DHT22;5854;48.072;16.286;2022-12-13T00:38:36;-2.00;72.20
11597;DHT22;5854;48.072;16.286;2022-12-13T00:41:11;-2.00;73.20
11597;DHT22;5854;48.072;16.286;2022-12-13T00:43:39;-2.10;67.60
11597;DHT22;5854;48.072;16.286;2022-12-13T00:46:10;-2.00;72.70
11597;DHT22;5854;48.072;16.286;2022-12-13T00:48:40;-2.00;66.30
11597;DHT22;5854;48.072;16.286;2022-12-13T00:51:09;-1.90;68.70
11597;DHT22;5854;48.072;16.286;2022-12-13T00:53:38;-2.00;66.30
11597;DHT22;5854;48.072;16.286;2022-12-13T00:56:09;-1.80;70.00
11597;DHT22;5854;48.072;16.286;2022-12-13T00:58:38;-2.00;69.00
11597;DHT22;5854;48.072;16.286;2022-12-13T01:01:07;-1.90;73.00
11597;DHT22;5854;48.072;16.286;2022-12-13T01:03:35;-1.90;72.50
11597;DHT22;5854;48.072;16.286;2022-12-13T01:06:08;-1.90;72.40
11597;DHT22;5854;48.072;16.286;2022-12-13T01:08:38;-1.90;67.80
11597;DHT22;5854;48.072;16.286;2022-12-13T01:11:06;-1.80;72.80
11597;DHT22;5854;48.072;16.286;2022-12-13T01:13:34;-1.80;70.30
11597;DHT22;5854;48.072;16.286;2022-12-13T01:16:03;-1.90;72.10
11597;DHT22;5854;48.072;16.286;2022-12-13T01:18:32;-1.90;72.40
11597;DHT22;5854;48.072;16.286;2022-12-13T01:21:01;-1.90;73.40
11597;DHT22;5854;48.072;16.286;2022-12-13T01:23:31;-2.00;68.10
11597;DHT22;5854;48.072;16.286;2022-12-13T01:26:02;-2.00;69.50
11597;DHT22;5854;48.072;16.286;2022-12-13T01:28:30;-2.00;72.70
11597;DHT22;5854;48.072;16.286;2022-12-13T01:30:59;-2.00;73.20
11597;DHT22;5854;48.072;16.286;2022-12-13T01:33:30;-2.00;73.40
11597;DHT22;5854;48.072;16.286;2022-12-13T01:35:59;-2.00;71.50
11597;DHT22;5854;48.072;16.286;2022-12-13T01:38:27;-2.00;70.40
11597;DHT22;5854;48.072;16.286;2022-12-13T01:40:54;-2.00;73.30
11597;DHT22;5854;48.072;16.286;2022-12-13T01:43:27;-2.00;75.10
11597;DHT22;5854;48.072;16.286;2022-12-13T01:45:55;-2.20;70.30
11597;DHT22;5854;48.072;16.286;2022-12-13T01:48:25;-2.30;70.90
11597;DHT22;5854;48.072;16.286;2022-12-13T01:50:58;-2.50;71.70
11597;DHT22;5854;48.072;16.286;2022-12-13T01:53:30;-2.50;73.90
11597;DHT22;5854;48.072;16.286;2022-12-13T01:56:02;-2.50;71.10
11597;DHT22;5854;48.072;16.286;2022-12-13T01:58:32;-2.50;70.90
11597;DHT22;5854;48.072;16.286;2022-12-13T02:01:00;-2.70;71.40
11597;DHT22;5854;48.072;16.286;2022-12-13T02:03:28;-2.80;74.00
11597;DHT22;5854;48.072;16.286;2022-12-13T02:05:59;-2.80;76.00
11597;DHT22;5854;48.072;16.286;2022-12-13T02:08:27;-2.80;74.40
11597;DHT22;5854;48.072;16.286;2022-12-13T02:10:56;-2.70;74.90
11597;DHT22;5854;48.072;16.286;2022-12-13T02:13:24;-2.70;76.50
11597;DHT22;5854;48.072;16.286;2022-12-13T02:16:05;-2.50;73.60
11597;DHT22;5854;48.072;16.286;2022-12-13T02:18:45;-2.20;76.90
11597;DHT22;5854;48.072;16.286;2022-12-13T02:21:26;-2.10;76.50
11597;DHT22;5854;48.072;16.286;2022-12-13T02:27:33;-2.30;74.30
11597;DHT22;5854;48.072;16.286;2022-12-13T02:30:24;-2.40;73.50
11597;DHT22;5854;48.072;16.286;2022-12-13T02:33:10;-2.40;68.80
11597;DHT22;5854;48.072;16.286;2022-12-13T02:35:51;-2.40;71.50
11597;DHT22;5854;48.072;16.286;2022-12-13T02:38:27;-2.30;72.30
11597;DHT22;5854;48.072;16.286;2022-12-13T02:41:02;-2.30;70.40
11597;DHT22;5854;48.072;16.286;2022-12-13T02:43:39;-2.20;68.80
11597;DHT22;5854;48.072;16.286;2022-12-13T02:46:15;-2.20;67.80
11597;DHT22;5854;48.072;16.286;2022-12-13T02:48:46;-2.20;67.10
11597;DHT22;5854;48.072;16.286;2022-12-13T02:51:16;-2.20;68.80
11597;DHT22;5854;48.072;16.286;2022-12-13T02:53:44;-2.20;69.60
11597;DHT22;5854;48.072;16.286;2022-12-13T02:56:13;-2.20;67.40
11597;DHT22;5854;48.072;16.286;2022-12-13T02:58:42;-2.20;70.30
11597;DHT22;5854;48.072;16.286;2022-12-13T03:01:28;-2.20;69.20
11597;DHT22;5854;48.072;16.286;2022-12-13T03:04:05;-2.30;69.00
11597;DHT22;5854;48.072;16.286;2022-12-13T03:06:45;-2.20;70.60
11597;DHT22;5854;48.072;16.286;2022-12-13T03:09:25;-2.20;71.20
11597;DHT22;5854;48.072;16.286;2022-12-13T03:12:10;-2.20;70.40
11597;DHT22;5854;48.072;16.286;2022-12-13T03:15:09;-2.20;70.50
11597;DHT22;5854;48.072;16.286;2022-12-13T03:17:47;-2.20;71.10
11597;DHT22;5854;48.072;16.286;2022-12-13T03:20:16;-2.20;71.10
11597;DHT22;5854;48.072;16.286;2022-12-13T03:22:44;-2.20;71.10
11597;DHT22;5854;48.072;16.286;2022-12-13T03:25:11;-2.20;71.60
11597;DHT22;5854;48.072;16.286;2022-12-13T03:27:39;-2.20;70.70
11597;DHT22;5854;48.072;16.286;2022-12-13T03:30:07;-2.30;70.10
11597;DHT22;5854;48.072;16.286;2022-12-13T03:32:35;-2.30;67.80
11597;DHT22;5854;48.072;16.286;2022-12-13T03:35:04;-2.40;67.50
11597;DHT22;5854;48.072;16.286;2022-12-13T03:37:32;-2.40;69.10
11597;DHT22;5854;48.072;16.286;2022-12-13T03:39:59;-2.40;68.00
11597;DHT22;5854;48.072;16.286;2022-12-13T03:42:27;-2.30;69.20
11597;DHT22;5854;48.072;16.286;2022-12-13T03:44:54;-2.40;66.60
11597;DHT22;5854;48.072;16.286;2022-12-13T03:47:21;-2.40;70.60
11597;DHT22;5854;48.072;16.286;2022-12-13T03:49:48;-2.40;70.20
11597;DHT22;5854;48.072;16.286;2022-12-13T03:52:17;-2.30;71.30
11597;DHT22;5854;48.072;16.286;2022-12-13T03:54:44;-2.40;70.80
11597;DHT22;5854;48.072;16.286;2022-12-13T03:57:11;-2.40;68.90
11597;DHT22;5854;48.072;16.286;2022-12-13T03:59:40;-2.40;68.90
11597;DHT22;5854;48.072;16.286;2022-12-13T04:02:07;-2.50;67.40
11597;DHT22;5854;48.072;16.286;2022-12-13T04:04:34;-2.50;67.70
11597;DHT22;5854;48.072;16.286;2022-12-13T04:07:01;-2.50;67.60
11597;DHT22;5854;48.072;16.286;2022-12-13T04:09:29;-2.50;71.30
11597;DHT22;5854;48.072;16.286;2022-12-13T04:11:57;-2.50;71.20
11597;DHT22;5854;48.072;16.286;2022-12-13T04:14:41;-2.50;70.70
11597;DHT22;5854;48.072;16.286;2022-12-13T04:17:08;-2.50;72.60
11597;DHT22;5854;48.072;16.286;2022-12-13T04:19:35;-2.50;72.70
11597;DHT22;5854;48.072;16.286;2022-12-13T04:22:03;-2.50;71.90
11597;DHT22;5854;48.072;16.286;2022-12-13T04:24:31;-2.50;73.50
11597;DHT22;5854;48.072;16.286;2022-12-13T04:26:58;-2.50;73.10
11597;DHT22;5854;48.072;16.286;2022-12-13T04:29:26;-2.50;72.20
11597;DHT22;5854;48.072;16.286;2022-12-13T04:31:54;-2.50;68.90
11597;DHT22;5854;48.072;16.286;2022-12-13T04:34:21;-2.60;68.30
11597;DHT22;5854;48.072;16.286;2022-12-13T04:36:48;-2.60;67.90
11597;DHT22;5854;48.072;16.286;2022-12-13T04:39:15;-2.60;73.00
11597;DHT22;5854;48.072;16.286;2022-12-13T04:41:44;-2.60;68.80
11597;DHT22;5854;48.072;16.286;2022-12-13T04:44:11;-2.60;70.70
11597;DHT22;5854;48.072;16.286;2022-12-13T04:46:38;-2.60;73.50
11597;DHT22;5854;48.072;16.286;2022-12-13T04:49:05;-2.60;74.00
11597;DHT22;5854;48.072;16.286;2022-12-13T04:51:32;-2.70;68.90
11597;DHT22;5854;48.072;16.286;2022-12-13T04:53:59;-2.70;68.90
11597;DHT22;5854;48.072;16.286;2022-12-13T04:56:27;-2.70;72.20
11597;DHT22;5854;48.072;16.286;2022-12-13T04:58:55;-2.70;73.90
11597;DHT22;5854;48.072;16.286;2022-12-13T05:01:22;-2.70;71.70
11597;DHT22;5854;48.072;16.286;2022-12-13T05:03:49;-2.60;73.80
11597;DHT22;5854;48.072;16.286;2022-12-13T05:06:16;-2.60;74.00
11597;DHT22;5854;48.072;16.286;2022-12-13T05:08:44;-2.70;69.80
11597;DHT22;5854;48.072;16.286;2022-12-13T05:11:11;-2.70;72.50
11597;DHT22;5854;48.072;16.286;2022-12-13T05:13:38;-2.70;69.00
11597;DHT22;5854;48.072;16.286;2022-12-13T05:16:08;-2.70;73.10
11597;DHT22;5854;48.072;16.286;2022-12-13T05:18:36;-2.90;67.40
11597;DHT22;5854;48.072;16.286;2022-12-13T05:21:04;-2.90;70.50
11597;DHT22;5854;48.072;16.286;2022-12-13T05:23:32;-2.90;70.70
11597;DHT22;5854;48.072;16.286;2022-12-13T05:26:00;-2.90;68.90
11597;DHT22;5854;48.072;16.286;2022-12-13T05:28:28;-2.90;71.90
11597;DHT22;5854;48.072;16.286;2022-12-13T05:30:56;-2.90;74.30
11597;DHT22;5854;48.072;16.286;2022-12-13T05:33:26;-2.90;72.40
11597;DHT22;5854;48.072;16.286;2022-12-13T05:35:54;-2.90;71.70
11597;DHT22;5854;48.072;16.286;2022-12-13T05:38:22;-2.90;73.70
11597;DHT22;5854;48.072;16.286;2022-12-13T05:40:51;-2.90;74.60
11597;DHT22;5854;48.072;16.286;2022-12-13T05:43:18;-2.90;74.50
11597;DHT22;5854;48.072;16.286;2022-12-13T05:45:45;-2.90;74.60
11597;DHT22;5854;48.072;16.286;2022-12-13T05:48:12;-2.90;73.50
11597;DHT22;5854;48.072;16.286;2022-12-13T05:50:41;-2.90;74.50
11597;DHT22;5854;48.072;16.286;2022-12-13T05:53:09;-2.90;74.00
11597;DHT22;5854;48.072;16.286;2022-12-13T05:55:37;-3.00;70.40
11597;DHT22;5854;48.072;16.286;2022-12-13T05:58:04;-3.10;70.80
11597;DHT22;5854;48.072;16.286;2022-12-13T06:00:32;-3.10;69.50
11597;DHT22;5854;48.072;16.286;2022-12-13T06:02:59;-3.10;72.40
11597;DHT22;5854;48.072;16.286;2022-12-13T06:05:26;-3.10;73.50
11597;DHT22;5854;48.072;16.286;2022-12-13T06:07:55;-3.10;74.80
11597;DHT22;5854;48.072;16.286;2022-12-13T06:10:22;-3.20;67.70
11597;DHT22;5854;48.072;16.286;2022-12-13T06:12:49;-3.30;69.60
11597;DHT22;5854;48.072;16.286;2022-12-13T06:15:17;-3.20;74.00
11597;DHT22;5854;48.072;16.286;2022-12-13T06:17:44;-3.20;74.70
11597;DHT22;5854;48.072;16.286;2022-12-13T06:20:11;-3.10;73.70
11597;DHT22;5854;48.072;16.286;2022-12-13T06:22:38;-3.20;69.80
11597;DHT22;5854;48.072;16.286;2022-12-13T06:25:07;-3.20;73.80
11597;DHT22;5854;48.072;16.286;2022-12-13T06:27:38;-3.10;74.80
11597;DHT22;5854;48.072;16.286;2022-12-13T06:30:08;-3.10;74.70
11597;DHT22;5854;48.072;16.286;2022-12-13T06:32:36;-3.20;71.80
11597;DHT22;5854;48.072;16.286;2022-12-13T06:35:03;-3.20;72.80
11597;DHT22;5854;48.072;16.286;2022-12-13T06:37:30;-3.30;66.60
11597;DHT22;5854;48.072;16.286;2022-12-13T06:39:57;-3.30;72.00
11597;DHT22;5854;48.072;16.286;2022-12-13T06:42:26;-3.30;71.80
11597;DHT22;5854;48.072;16.286;2022-12-13T06:44:53;-3.40;71.90
11597;DHT22;5854;48.072;16.286;2022-12-13T06:47:20;-3.30;72.30
11597;DHT22;5854;48.072;16.286;2022-12-13T06:49:48;-3.30;72.70
11597;DHT22;5854;48.072;16.286;2022-12-13T06:52:16;-3.30;73.40
11597;DHT22;5854;48.072;16.286;2022-12-13T06:54:43;-3.30;73.90
11597;DHT22;5854;48.072;16.286;2022-12-13T06:57:10;-3.50;67.50
11597;DHT22;5854;48.072;16.286;2022-12-13T06:59:39;-3.70;68.20
11597;DHT22;5854;48.072;16.286;2022-12-13T07:09:43;-3.60;71.40
11597;DHT22;5854;48.072;16.286;2022-12-13T07:12:13;-3.50;72.70
11597;DHT22;5854;48.072;16.286;2022-12-13T07:14:54;-3.40;73.70
11597;DHT22;5854;48.072;16.286;2022-12-13T07:17:23;-3.40;72.60
11597;DHT22;5854;48.072;16.286;2022-12-13T07:19:52;-3.50;69.20
11597;DHT22;5854;48.072;16.286;2022-12-13T07:22:19;-3.40;70.90
11597;DHT22;5854;48.072;16.286;2022-12-13T07:24:46;-3.40;71.30
11597;DHT22;5854;48.072;16.286;2022-12-13T07:27:14;-3.40;72.00
11597;DHT22;5854;48.072;16.286;2022-12-13T07:29:42;-3.40;72.30
11597;DHT22;5854;48.072;16.286;2022-12-13T07:32:10;-3.40;71.00
11597;DHT22;5854;48.072;16.286;2022-12-13T07:34:37;-3.50;71.80
11597;DHT22;5854;48.072;16.286;2022-12-13T07:37:04;-3.40;72.50
11597;DHT22;5854;48.072;16.286;2022-12-13T07:39:31;-3.40;72.50
11597;DHT22;5854;48.072;16.286;2022-12-13T07:41:58;-3.40;72.40
11597;DHT22;5854;48.072;16.286;2022-12-13T07:44:25;-3.40;70.70
11597;DHT22;5854;48.072;16.286;2022-12-13T07:46:54;-3.40;69.90
11597;DHT22;5854;48.072;16.286;2022-12-13T07:49:21;-3.40;71.80
11597;DHT22;5854;48.072;16.286;2022-12-13T07:51:48;-3.40;72.30
11597;DHT22;5854;48.072;16.286;2022-12-13T07:54:16;-3.40;71.60
11597;DHT22;5854;48.072;16.286;2022-12-13T07:56:43;-3.40;72.40
11597;DHT22;5854;48.072;16.286;2022-12-13T07:59:11;-3.40;72.40
11597;DHT22;5854;48.072;16.286;2022-12-13T09:50:31;-1.70;55.70
11597;DHT22;5854;48.072;16.286;2022-12-13T09:53:02;-1.70;56.80
11597;DHT22;5854;48.072;16.286;2022-12-13T09:55:34;-1.60;55.50
11597;DHT22;5854;48.072;16.286;2022-12-13T09:58:07;-1.60;55.50
11597;DHT22;5854;48.072;16.286;2022-12-13T10:00:39;-1.70;55.10
11597;DHT22;5854;48.072;16.286;2022-12-13T10:03:12;-1.70;55.20
11597;DHT22;5854;48.072;16.286;2022-12-13T10:05:44;-1.70;55.50
11597;DHT22;5854;48.072;16.286;2022-12-13T10:08:15;-1.70;55.10
11597;DHT22;5854;48.072;16.286;2022-12-13T10:10:43;-1.70;55.20
11597;DHT22;5854;48.072;16.286;2022-12-13T10:13:15;-1.60;56.50
11597;DHT22;5854;48.072;16.286;2022-12-13T10:15:47;-1.60;56.10
11597;DHT22;5854;48.072;16.286;2022-12-13T10:18:24;-1.60;58.30
11597;DHT22;5854;48.072;16.286;2022-12-13T10:20:58;-1.60;56.40
11597;DHT22;5854;48.072;16.286;2022-12-13T10:23:29;-1.70;57.80
11597;DHT22;5854;48.072;16.286;2022-12-13T10:25:56;-1.70;57.30
11597;DHT22;5854;48.072;16.286;2022-12-13T10:28:26;-1.60;56.90
11597;DHT22;5854;48.072;16.286;2022-12-13T10:30:56;-1.70;57.00
11597;DHT22;5854;48.072;16.286;2022-12-13T10:33:26;-1.70;56.40
11597;DHT22;5854;48.072;16.286;2022-12-13T10:36:06;-1.70;56.40
11597;DHT22;5854;48.072;16.286;2022-12-13T11:13:17;-1.50;58.00
11597;DHT22;5854;48.072;16.286;2022-12-13T11:15:53;-1.50;60.40
11597;DHT22;5854;48.072;16.286;2022-12-13T11:18:24;-1.50;58.20
11597;DHT22;5854;48.072;16.286;2022-12-13T11:20:54;-1.40;59.10
11597;DHT22;5854;48.072;16.286;2022-12-13T11:23:27;-1.40;59.30
11597;DHT22;5854;48.072;16.286;2022-12-13T11:25:58;-1.10;62.60
11597;DHT22;5854;48.072;16.286;2022-12-13T11:28:49;-1.10;63.40
11597;DHT22;5854;48.072;16.286;2022-12-13T11:31:33;-1.00;63.30
11597;DHT22;5854;48.072;16.286;2022-12-13T11:34:11;-0.90;58.20
11597;DHT22;5854;48.072;16.286;2022-12-13T11:36:50;-1.10;59.70
11597;DHT22;5854;48.072;16.286;2022-12-13T11:39:26;-1.20;61.40
11597;DHT22;5854;48.072;16.286;2022-12-13T11:42:00;-1.20;59.50
11597;DHT22;5854;48.072;16.286;2022-12-13T11:44:39;-1.20;56.60
11597;DHT22;5854;48.072;16.286;2022-12-13T11:47:15;-1.10;58.30
11597;DHT22;5854;48.072;16.286;2022-12-13T11:49:46;-1.10;56.90
11597;DHT22;5854;48.072;16.286;2022-12-13T11:52:18;-1.10;59.40
11597;DHT22;5854;48.072;16.286;2022-12-13T11:54:53;-1.10;54.90
11597;DHT22;5854;48.072;16.286;2022-12-13T11:57:34;-0.90;54.70
11597;DHT22;5854;48.072;16.286;2022-12-13T12:00:20;-0.90;55.70
11597;DHT22;5854;48.072;16.286;2022-12-13T12:02:54;-0.70;54.10
11597;DHT22;5854;48.072;16.286;2022-12-13T12:05:27;-0.70;53.50
11597;DHT22;5854;48.072;16.286;2022-12-13T12:08:01;-0.70;54.00
11597;DHT22;5854;48.072;16.286;2022-12-13T12:42:28;-0.30;49.60
11597;DHT22;5854;48.072;16.286;2022-12-13T12:45:13;-0.30;50.00
11597;DHT22;5854;48.072;16.286;2022-12-13T12:47:52;-0.10;68.70
11597;DHT22;5854;48.072;16.286;2022-12-13T12:50:36;0.00;49.10
11597;DHT22;5854;48.072;16.286;2022-12-13T12:53:28;-0.10;51.20
11597;DHT22;5854;48.072;16.286;2022-12-13T12:56:13;-0.20;50.40
11597;DHT22;5854;48.072;16.286;2022-12-13T12:58:53;-0.30;50.40
11597;DHT22;5854;48.072;16.286;2022-12-13T13:01:34;-0.30;50.80
11597;DHT22;5854;48.072;16.286;2022-12-13T13:04:13;-0.30;52.80
11597;DHT22;5854;48.072;16.286;2022-12-13T13:06:46;-0.40;52.10
11597;DHT22;5854;48.072;16.286;2022-12-13T13:09:17;-0.40;51.60
11597;DHT22;5854;48.072;16.286;2022-12-13T13:11:46;-0.40;51.30
11597;DHT22;5854;48.072;16.286;2022-12-13T13:14:30;-0.40;52.20
11597;DHT22;5854;48.072;16.286;2022-12-13T13:16:59;-0.40;52.20
11597;DHT22;5854;48.072;16.286;2022-12-13T13:19:42;-0.40;54.00
11597;DHT22;5854;48.072;16.286;2022-12-13T13:22:31;-0.50;54.50
11597;DHT22;5854;48.072;16.286;2022-12-13T13:28:05;-0.50;54.20
11597;DHT22;5854;48.072;16.286;2022-12-13T13:31:01;-0.60;54.40
11597;DHT22;5854;48.072;16.286;2022-12-13T13:33:42;-0.60;54.80
11597;DHT22;5854;48.072;16.286;2022-12-13T13:36:44;-0.70;55.10
11597;DHT22;5854;48.072;16.286;2022-12-13T13:39:14;-0.70;55.70
11597;DHT22;5854;48.072;16.286;2022-12-13T13:41:55;-0.70;55.60
11597;DHT22;5854;48.072;16.286;2022-12-13T13:44:59;-0.80;56.60
11597;DHT22;5854;48.072;16.286;2022-12-13T13:47:35;-0.80;57.10
11597;DHT22;5854;48.072;16.286;2022-12-13T13:50:27;-0.90;56.40
11597;DHT22;5854;48.072;16.286;2022-12-13T13:53:22;-0.90;56.50
11597;DHT22;5854;48.072;16.286;2022-12-13T14:00:14;-0.90;57.10
11597;DHT22;5854;48.072;16.286;2022-12-13T14:09:46;-1.00;59.20
11597;DHT22;5854;48.072;16.286;2022-12-13T14:16:06;-1.10;58.80
11597;DHT22;5854;48.072;16.286;2022-12-13T14:22:39;-1.20;59.70
11597;DHT22;5854;48.072;16.286;2022-12-13T14:25:39;-1.20;59.50
11597;DHT22;5854;48.072;16.286;2022-12-13T14:28:17;-1.20;60.80
11597;DHT22;5854;48.072;16.286;2022-12-13T14:30:49;-1.20;60.90
11597;DHT22;5854;48.072;16.286;2022-12-13T14:35:53;-1.30;61.80
11597;DHT22;5854;48.072;16.286;2022-12-13T15:01:32;-2.00;64.80
11597;DHT22;5854;48.072;16.286;2022-12-13T15:04:17;-2.00;63.90
11597;DHT22;5854;48.072;16.286;2022-12-13T15:06:46;-2.20;63.50
11597;DHT22;5854;48.072;16.286;2022-12-13T15:09:15;-2.40;65.00
11597;DHT22;5854;48.072;16.286;2022-12-13T15:14:24;-2.60;66.20
11597;DHT22;5854;48.072;16.286;2022-12-13T15:16:59;-2.60;66.20
11597;DHT22;5854;48.072;16.286;2022-12-13T15:24:25;-2.70;66.40
11597;DHT22;5854;48.072;16.286;2022-12-13T15:26:56;-2.80;66.90
11597;DHT22;5854;48.072;16.286;2022-12-13T15:29:27;-2.90;67.40
11597;DHT22;5854;48.072;16.286;2022-12-13T15:31:57;-2.90;68.80
11597;DHT22;5854;48.072;16.286;2022-12-13T15:34:33;-2.90;67.70
11597;DHT22;5854;48.072;16.286;2022-12-13T15:37:03;-3.00;69.30
11597;DHT22;5854;48.072;16.286;2022-12-13T15:39:36;-2.90;69.90
11597;DHT22;5854;48.072;16.286;2022-12-13T15:42:05;-2.80;69.10
11597;DHT22;5854;48.072;16.286;2022-12-13T15:44:44;-2.70;69.50
11597;DHT22;5854;48.072;16.286;2022-12-13T15:47:15;-2.90;67.10
11597;DHT22;5854;48.072;16.286;2022-12-13T15:49:48;-3.10;68.70
11597;DHT22;5854;48.072;16.286;2022-12-13T15:52:26;-3.30;68.20
11597;DHT22;5854;48.072;16.286;2022-12-13T15:54:57;-3.30;69.60
11597;DHT22;5854;48.072;16.286;2022-12-13T15:57:27;-3.20;71.40
11597;DHT22;5854;48.072;16.286;2022-12-13T16:02:52;-2.90;72.20
11597;DHT22;5854;48.072;16.286;2022-12-13T16:05:25;-2.50;71.70
11597;DHT22;5854;48.072;16.286;2022-12-13T16:07:55;-2.40;70.50
11597;DHT22;5854;48.072;16.286;2022-12-13T16:10:27;-2.20;69.00
11597;DHT22;5854;48.072;16.286;2022-12-13T16:12:58;-2.10;67.20
11597;DHT22;5854;48.072;16.286;2022-12-13T16:15:45;-2.00;67.70
11597;DHT22;5854;48.072;16.286;2022-12-13T16:20:44;-1.90;66.70
11597;DHT22;5854;48.072;16.286;2022-12-13T16:23:11;-1.90;66.20
11597;DHT22;5854;48.072;16.286;2022-12-13T16:25:43;-1.90;66.30
11597;DHT22;5854;48.072;16.286;2022-12-13T16:31:05;-1.80;66.60
11597;DHT22;5854;48.072;16.286;2022-12-13T16:33:39;-1.80;65.10
11597;DHT22;5854;48.072;16.286;2022-12-13T16:36:12;-1.90;64.00
11597;DHT22;5854;48.072;16.286;2022-12-13T16:38:39;-1.80;66.90
11597;DHT22;5854;48.072;16.286;2022-12-13T16:41:16;-1.80;67.10
11597;DHT22;5854;48.072;16.286;2022-12-13T16:43:58;-1.70;68.10
11597;DHT22;5854;48.072;16.286;2022-12-13T16:46:27;-1.70;64.00
11597;DHT22;5854;48.072;16.286;2022-12-13T16:48:54;-1.80;66.60
11597;DHT22;5854;48.072;16.286;2022-12-13T16:51:23;-1.70;66.80
11597;DHT22;5854;48.072;16.286;2022-12-13T16:53:50;-1.70;66.50
11597;DHT22;5854;48.072;16.286;2022-12-13T17:03:50;-1.80;66.40
11597;DHT22;5854;48.072;16.286;2022-12-13T17:06:20;-1.90;67.30
11597;DHT22;5854;48.072;16.286;2022-12-13T17:08:50;-1.90;66.50
11597;DHT22;5854;48.072;16.286;2022-12-13T17:11:17;-1.80;67.60
11597;DHT22;5854;48.072;16.286;2022-12-13T17:13:44;-2.20;66.70
11597;DHT22;5854;48.072;16.286;2022-12-13T17:16:13;-2.20;69.40
11597;DHT22;5854;48.072;16.286;2022-12-13T17:18:40;-2.10;69.40
11597;DHT22;5854;48.072;16.286;2022-12-13T17:21:08;-2.10;65.50
11597;DHT22;5854;48.072;16.286;2022-12-13T17:23:37;-2.10;68.20
11597;DHT22;5854;48.072;16.286;2022-12-13T17:26:05;-2.00;68.00
11597;DHT22;5854;48.072;16.286;2022-12-13T17:28:33;-2.00;68.70
11597;DHT22;5854;48.072;16.286;2022-12-13T17:31:05;-2.00;68.80
11597;DHT22;5854;48.072;16.286;2022-12-13T17:33:32;-2.10;64.60
11597;DHT22;5854;48.072;16.286;2022-12-13T17:36:01;-2.10;68.10
11597;DHT22;5854;48.072;16.286;2022-12-13T17:38:30;-2.10;64.80
11597;DHT22;5854;48.072;16.286;2022-12-13T17:41:19;-2.10;68.40
11597;DHT22;5854;48.072;16.286;2022-12-13T17:43:46;-2.10;67.60
11597;DHT22;5854;48.072;16.286;2022-12-13T17:46:14;-2.10;67.00
11597;DHT22;5854;48.072;16.286;2022-12-13T17:48:43;-2.20;67.20
11597;DHT22;5854;48.072;16.286;2022-12-13T17:51:11;-2.30;65.70
11597;DHT22;5854;48.072;16.286;2022-12-13T17:53:40;-2.30;67.10
11597;DHT22;5854;48.072;16.286;2022-12-13T17:56:11;-2.50;66.20
11597;DHT22;5854;48.072;16.286;2022-12-13T17:58:41;-2.40;70.00
11597;DHT22;5854;48.072;16.286;2022-12-13T18:01:10;-2.40;67.80
11597;DHT22;5854;48.072;16.286;2022-12-13T18:03:38;-2.30;69.80
11597;DHT22;5854;48.072;16.286;2022-12-13T18:06:06;-2.30;66.20
11597;DHT22;5854;48.072;16.286;2022-12-13T18:08:34;-2.40;68.40
11597;DHT22;5854;48.072;16.286;2022-12-13T18:11:02;-2.40;68.70
11597;DHT22;5854;48.072;16.286;2022-12-13T18:13:29;-2.30;68.30
11597;DHT22;5854;48.072;16.286;2022-12-13T18:16:02;-2.30;69.60
11597;DHT22;5854;48.072;16.286;2022-12-13T18:18:30;-2.40;64.70
11597;DHT22;5854;48.072;16.286;2022-12-13T18:21:01;-2.40;69.50
11597;DHT22;5854;48.072;16.286;2022-12-13T18:23:30;-2.50;65.30
11597;DHT22;5854;48.072;16.286;2022-12-13T18:25:58;-2.60;68.20
11597;DHT22;5854;48.072;16.286;2022-12-13T18:28:26;-2.50;70.00
11597;DHT22;5854;48.072;16.286;2022-12-13T18:30:55;-2.50;69.50
11597;DHT22;5854;48.072;16.286;2022-12-13T18:33:24;-2.60;66.60
11597;DHT22;5854;48.072;16.286;2022-12-13T18:35:51;-2.70;68.30
11597;DHT22;5854;48.072;16.286;2022-12-13T18:38:18;-2.50;70.50
11597;DHT22;5854;48.072;16.286;2022-12-13T18:40:47;-2.60;69.50
11597;DHT22;5854;48.072;16.286;2022-12-13T18:43:15;-2.60;67.80
11597;DHT22;5854;48.072;16.286;2022-12-13T18:45:42;-2.70;65.30
11597;DHT22;5854;48.072;16.286;2022-12-13T18:48:09;-2.70;67.50
11597;DHT22;5854;48.072;16.286;2022-12-13T18:50:38;-2.70;67.90
11597;DHT22;5854;48.072;16.286;2022-12-13T18:53:06;-2.70;65.50
11597;DHT22;5854;48.072;16.286;2022-12-13T18:55:33;-2.80;65.80
11597;DHT22;5854;48.072;16.286;2022-12-13T18:58:00;-2.80;68.10
11597;DHT22;5854;48.072;16.286;2022-12-13T19:00:27;-2.70;67.80
11597;DHT22;5854;48.072;16.286;2022-12-13T19:02:54;-2.70;69.10
11597;DHT22;5854;48.072;16.286;2022-12-13T19:05:22;-2.60;69.70
11597;DHT22;5854;48.072;16.286;2022-12-13T19:07:51;-2.70;68.80
11597;DHT22;5854;48.072;16.286;2022-12-13T19:10:18;-2.60;69.90
11597;DHT22;5854;48.072;16.286;2022-12-13T19:12:46;-2.60;71.00
11597;DHT22;5854;48.072;16.286;2022-12-13T19:15:14;-2.60;70.20
11597;DHT22;5854;48.072;16.286;2022-12-13T19:17:41;-2.60;70.50
11597;DHT22;5854;48.072;16.286;2022-12-13T19:20:09;-2.60;70.60
11597;DHT22;5854;48.072;16.286;2022-12-13T19:22:37;-2.70;70.10
11597;DHT22;5854;48.072;16.286;2022-12-13T19:25:06;-2.70;70.80
11597;DHT22;5854;48.072;16.286;2022-12-13T19:27:35;-2.80;66.70
11597;DHT22;5854;48.072;16.286;2022-12-13T19:30:02;-2.80;70.20
11597;DHT22;5854;48.072;16.286;2022-12-13T19:32:30;-2.80;68.80
11597;DHT22;5854;48.072;16.286;2022-12-13T19:34:57;-2.80;69.50
11597;DHT22;5854;48.072;16.286;2022-12-13T19:37:24;-2.80;68.60
11597;DHT22;5854;48.072;16.286;2022-12-13T19:39:51;-2.90;68.50
11597;DHT22;5854;48.072;16.286;2022-12-13T19:42:20;-2.90;68.40
11597;DHT22;5854;48.072;16.286;2022-12-13T19:44:48;-2.90;68.30
11597;DHT22;5854;48.072;16.286;2022-12-13T19:47:15;-3.00;67.90
11597;DHT22;5854;48.072;16.286;2022-12-13T19:49:42;-3.00;71.00
11597;DHT22;5854;48.072;16.286;2022-12-13T19:52:09;-3.00;70.40
11597;DHT22;5854;48.072;16.286;2022-12-13T19:54:38;-2.90;71.00
11597;DHT22;5854;48.072;16.286;2022-12-13T19:57:05;-2.90;70.50
11597;DHT22;5854;48.072;16.286;2022-12-13T19:59:34;-2.90;70.60
11597;DHT22;5854;48.072;16.286;2022-12-13T20:02:01;-2.90;71.00
11597;DHT22;5854;48.072;16.286;2022-12-13T20:04:30;-3.00;67.40
11597;DHT22;5854;48.072;16.286;2022-12-13T20:06:57;-3.00;70.20
11597;DHT22;5854;48.072;16.286;2022-12-13T20:09:24;-3.00;71.80
11597;DHT22;5854;48.072;16.286;2022-12-13T20:11:51;-3.00;69.30